Time;durP1;ratioP1;P1;durP2;ratioP2;P2;SDS_P1;SDS_P2;PMS_P1;PMS_P2;Temp;Humidity;BMP_temperature;BMP_pressure;BME280_temperature;BME280_humidity;BME280_pressure;Samples;Min_cycle;Max_cycle;Signal;HPM_P1;HPM_P2
2022/01/08 00:00:08;;;;;;;;;;;;;;;;;;5033121;28;19936;-76
2022/01/08 00:02:36;;;;;;;;;;;;;;;;;;5028561;28;19956;-76
2022/01/08 00:05:01;;;;;;;;;;;;;;;;;;5034849;28;20043;-77
2022/01/08 00:07:29;;;;;;;;;;;;;;;;;;5031787;28;20354;-76
2022/01/08 00:09:54;;;;;;;;;;;;;;;;;;5032030;28;19916;-76
2022/01/08 00:12:23;;;;;;;;;;;;;;;;;;5032074;28;20358;-77
2022/01/08 00:14:48;;;;;;;;;;;;;;;;;;5028320;28;19913;-75
2022/01/08 00:17:13;;;;;;;;;;;;;;;;;;5029616;28;19967;-75
2022/01/08 00:19:39;;;;;;;;;;;;;;;;;;5025418;28;19928;-76
2022/01/08 00:22:04;;;;;;;;;;;;;;;;;;5033355;28;19955;-76
2022/01/08 00:24:30;;;;;;;;;;;;;;;;;;5030676;28;20010;-75
2022/01/08 00:26:57;;;;;;;;;;;;;;;;;;5014702;28;20270;-76
2022/01/08 00:29:25;;;;;;;;;;;;;;;;;;4997629;28;19941;-76
2022/01/08 00:31:50;;;;;;;;;;;;;;;;;;5014583;28;19924;-76
2022/01/08 00:34:18;;;;;;;;;;;;;;;;;;4997423;28;19917;-76
2022/01/08 00:36:46;;;;;;;;;;;;;;;;;;4998200;28;19917;-76
2022/01/08 00:39:11;;;;;;;;;;;;;;;;;;5014526;28;19922;-76
2022/01/08 00:41:36;;;;;;;;;;;;;;;;;;5015066;28;20245;-76
2022/01/08 00:44:01;;;;;;;;;;;;;;;;;;5014556;28;20265;-76
2022/01/08 00:46:26;;;;;;;;;;;;;;;;;;5014591;28;20346;-75
2022/01/08 00:48:52;;;;;;;;;;;;;;;;;;5014596;28;19917;-76
2022/01/08 00:51:17;;;;;;;;;;;;;;;;;;4997023;28;19918;-75
2022/01/08 00:53:42;;;;;;;;;;;;;;;;;;5014528;28;19918;-75
2022/01/08 00:56:07;;;;;;;;;;;;;;;;;;4997292;28;20362;-75
2022/01/08 00:58:32;;;;;;;;;;;;;;;;;;5014082;28;19917;-76
2022/01/08 01:00:58;;;;;;;;;;;;;;;;;;5014653;28;19925;-76
2022/01/08 01:03:23;;;;;;;;;;;;;;;;;;5014244;28;19917;-76
2022/01/08 01:05:48;;;;;;;;;;;;;;;;;;5010934;28;19921;-76
2022/01/08 01:08:13;;;;;;;;;;;;;;;;;;5013310;28;19917;-76
2022/01/08 01:10:41;;;;;;;;;;;;;;;;;;5014780;28;19929;-76
2022/01/08 01:13:07;;;;;;;;;;;;;;;;;;4999893;28;20243;-75
2022/01/08 01:15:32;;;;;;;;;;;;;;;;;;5018850;28;19913;-76
2022/01/08 01:18:02;;;;;;;;;;;;;;;;;;5011762;28;20235;-75
2022/01/08 01:20:27;;;;;;;;;;;;;;;;;;5001568;28;19917;-75
2022/01/08 01:23:19;;;;;;;;;;;;;;;;;;5018224;28;19929;-75
2022/01/08 01:25:53;;;;;;;;;;;;;;;;;;5037067;28;19995;-75
2022/01/08 01:49:19;;;;;;;;;;;;;;;;;;5037223;28;20287;-75
2022/01/08 01:51:47;;;;;;;;;;;;;;;;;;5036406;28;19921;-76
2022/01/08 01:54:12;;;;;;;;;;;;;;;;;;5037323;28;19913;-75
2022/01/08 01:56:37;;;;;;;;;;;;;;;;;;5037457;28;20519;-75
2022/01/08 01:59:03;;;;;;;;;;;;;;;;;;5019792;28;20263;-75
2022/01/08 02:01:28;;;;;;;;;;;;;;;;;;5037024;28;19932;-75
2022/01/08 02:03:56;;;;;;;;;;;;;;;;;;5036888;28;20351;-75
2022/01/08 02:06:21;;;;;;;;;;;;;;;;;;5036923;28;20369;-75
2022/01/08 02:08:49;;;;;;;;;;;;;;;;;;5037101;28;19921;-75
2022/01/08 02:11:19;;;;;;;;;;;;;;;;;;5036774;28;19994;-75
2022/01/08 02:13:45;;;;;;;;;;;;;;;;;;5037304;28;19913;-76
2022/01/08 02:16:16;;;;;;;;;;;;;;;;;;5015406;28;19917;-75
2022/01/08 02:18:42;;;;;;;;;;;;;;;;;;5033398;28;20373;-76
2022/01/08 02:21:07;;;;;;;;;;;;;;;;;;5018627;28;19976;-75
2022/01/08 02:23:35;;;;;;;;;;;;;;;;;;5036008;28;19917;-76
2022/01/08 02:26:03;;;;;;;;;;;;;;;;;;5031453;28;19913;-76
2022/01/08 02:28:28;;;;;;;;;;;;;;;;;;5036968;28;19925;-75
2022/01/08 02:30:54;;;;;;;;;;;;;;;;;;5035681;28;19963;-75
2022/01/08 02:33:23;;;;;;;;;;;;;;;;;;5036762;28;20019;-75
2022/01/08 02:35:50;;;;;;;;;;;;;;;;;;5036770;28;19917;-75
2022/01/08 02:38:15;;;;;;;;;;;;;;;;;;5036675;28;19924;-76
2022/01/08 02:40:49;;;;;;;;;;;;;;;;;;5036937;28;19917;-76
2022/01/08 02:43:17;;;;;;;;;;;;;;;;;;5036444;28;19940;-76
2022/01/08 02:45:42;;;;;;;;;;;;;;;;;;5036664;28;19913;-76
2022/01/08 02:48:10;;;;;;;;;;;;;;;;;;5036867;28;19914;-76
2022/01/08 02:50:35;;;;;;;;;;;;;;;;;;5035777;28;19956;-76
2022/01/08 02:53:00;;;;;;;;;;;;;;;;;;5036362;28;19960;-76
2022/01/08 02:55:25;;;;;;;;;;;;;;;;;;5034718;28;19963;-78
2022/01/08 02:57:51;;;;;;;;;;;;;;;;;;5036570;28;19913;-77
2022/01/08 03:00:21;;;;;;;;;;;;;;;;;;5034886;28;19921;-77
2022/01/08 03:02:47;;;;;;;;;;;;;;;;;;5051239;28;20338;-78
2022/01/08 03:05:12;;;;;;;;;;;;;;;;;;5034700;28;19952;-78
2022/01/08 03:07:38;;;;;;;;;;;;;;;;;;5051604;28;19956;-78
2022/01/08 03:10:04;;;;;;;;;;;;;;;;;;5036031;28;19917;-78
2022/01/08 03:12:32;;;;;;;;;;;;;;;;;;5035867;28;19940;-78
2022/01/08 03:14:57;;;;;;;;;;;;;;;;;;5036105;28;20004;-77
2022/01/08 03:17:25;;;;;;;;;;;;;;;;;;5035324;28;19913;-78
2022/01/08 03:19:52;;;;;;;;;;;;;;;;;;5034240;28;20008;-77
2022/01/08 03:22:17;;;;;;;;;;;;;;;;;;5034860;28;19928;-78
2022/01/08 03:24:43;;;;;;;;;;;;;;;;;;5035674;28;19921;-77
2022/01/08 03:27:10;;;;;;;;;;;;;;;;;;5035130;28;20290;-77
2022/01/08 03:29:41;;;;;;;;;;;;;;;;;;5034834;28;19940;-77
2022/01/08 03:32:06;;;;;;;;;;;;;;;;;;5035870;28;20255;-77
2022/01/08 03:34:31;;;;;;;;;;;;;;;;;;5034075;28;19923;-77
2022/01/08 03:36:59;;;;;;;;;;;;;;;;;;5032545;28;20262;-77
2022/01/08 03:39:24;;;;;;;;;;;;;;;;;;5035091;28;19978;-79
2022/01/08 03:41:49;;;;;;;;;;;;;;;;;;5035825;28;20331;-78
2022/01/08 03:44:14;;;;;;;;;;;;;;;;;;5035151;28;19996;-79
2022/01/08 03:46:42;;;;;;;;;;;;;;;;;;5034836;28;19924;-77
2022/01/08 03:51:32;;;;;;;;;;;;;;;;;;5035828;28;19924;-77
2022/01/08 03:53:58;;;;;;;;;;;;;;;;;;5034089;28;19917;-77
2022/01/08 03:56:26;;;;;;;;;;;;;;;;;;5035302;28;19913;-78
2022/01/08 03:58:51;;;;;;;;;;;;;;;;;;5033986;28;19953;-77
2022/01/08 04:01:16;;;;;;;;;;;;;;;;;;5034512;28;20307;-77
2022/01/08 04:03:42;;;;;;;;;;;;;;;;;;5034467;28;19924;-77
2022/01/08 04:06:07;;;;;;;;;;;;;;;;;;5017393;28;19992;-77
2022/01/08 04:08:32;;;;;;;;;;;;;;;;;;5050659;28;20350;-77
2022/01/08 04:10:57;;;;;;;;;;;;;;;;;;5035322;28;19913;-77
2022/01/08 04:13:27;;;;;;;;;;;;;;;;;;5034491;28;20378;-77
2022/01/08 04:15:56;;;;;;;;;;;;;;;;;;5034707;28;20278;-77
2022/01/08 04:18:21;;;;;;;;;;;;;;;;;;5033783;28;19916;-77
2022/01/08 04:23:31;;;;;;;;;;;;;;;;;;5033903;28;20010;-77
2022/01/08 04:25:56;;;;;;;;;;;;;;;;;;5034738;28;19968;-77
2022/01/08 04:28:21;;;;;;;;;;;;;;;;;;5034591;28;19917;-77
2022/01/08 04:30:46;;;;;;;;;;;;;;;;;;5034073;28;19913;-76
2022/01/08 04:33:12;;;;;;;;;;;;;;;;;;5034423;28;19968;-77
2022/01/08 04:35:39;;;;;;;;;;;;;;;;;;5021577;28;19917;-77
2022/01/08 04:38:05;;;;;;;;;;;;;;;;;;5047119;28;20228;-79
2022/01/08 04:40:32;;;;;;;;;;;;;;;;;;5014199;28;20004;-79
2022/01/08 04:42:58;;;;;;;;;;;;;;;;;;5025722;28;19917;-79
2022/01/08 04:45:28;;;;;;;;;;;;;;;;;;5034855;28;20348;-77
2022/01/08 04:47:55;;;;;;;;;;;;;;;;;;5034329;28;19917;-78
2022/01/08 04:50:22;;;;;;;;;;;;;;;;;;5034817;28;19913;-79
2022/01/08 04:52:48;;;;;;;;;;;;;;;;;;5034305;28;19916;-78
2022/01/08 04:55:15;;;;;;;;;;;;;;;;;;5033833;28;19913;-78
2022/01/08 04:57:40;;;;;;;;;;;;;;;;;;5030233;28;19917;-77
2022/01/08 05:00:08;;;;;;;;;;;;;;;;;;5033945;28;20024;-77
2022/01/08 05:02:33;;;;;;;;;;;;;;;;;;5032377;28;20358;-76
2022/01/08 05:05:01;;;;;;;;;;;;;;;;;;5033359;28;19937;-77
2022/01/08 05:07:27;;;;;;;;;;;;;;;;;;5049449;28;19917;-77
2022/01/08 05:09:54;;;;;;;;;;;;;;;;;;5033995;28;19917;-78
2022/01/08 05:12:19;;;;;;;;;;;;;;;;;;5033571;28;19921;-78
2022/01/08 05:14:45;;;;;;;;;;;;;;;;;;5050233;28;19928;-79
2022/01/08 05:17:10;;;;;;;;;;;;;;;;;;5034403;28;19936;-77
2022/01/08 05:19:46;;;;;;;;;;;;;;;;;;5034464;28;19932;-77
2022/01/08 05:22:20;;;;;;;;;;;;;;;;;;5034246;28;20338;-77
2022/01/08 05:24:47;;;;;;;;;;;;;;;;;;5034385;28;20228;-78
2022/01/08 05:27:17;;;;;;;;;;;;;;;;;;5033258;28;19956;-78
2022/01/08 05:29:45;;;;;;;;;;;;;;;;;;5051643;28;19920;-78
2022/01/08 05:32:16;;;;;;;;;;;;;;;;;;5035561;28;19913;-78
2022/01/08 05:34:44;;;;;;;;;;;;;;;;;;5017727;28;20270;-78
2022/01/08 05:37:09;;;;;;;;;;;;;;;;;;5025942;28;19917;-78
2022/01/08 05:39:34;;;;;;;;;;;;;;;;;;5033329;28;20259;-78
2022/01/08 05:41:59;;;;;;;;;;;;;;;;;;5034294;28;20330;-78
2022/01/08 05:44:25;;;;;;;;;;;;;;;;;;5034157;28;19917;-77
2022/01/08 05:46:50;;;;;;;;;;;;;;;;;;5034129;28;19913;-77
2022/01/08 05:49:17;;;;;;;;;;;;;;;;;;5034156;28;19921;-77
2022/01/08 05:51:42;;;;;;;;;;;;;;;;;;5033817;28;19913;-77
2022/01/08 05:54:07;;;;;;;;;;;;;;;;;;5034012;28;19917;-76
2022/01/08 05:56:33;;;;;;;;;;;;;;;;;;5033130;28;20361;-76
2022/01/08 05:58:58;;;;;;;;;;;;;;;;;;5034135;28;19944;-76
2022/01/08 06:01:23;;;;;;;;;;;;;;;;;;5037464;28;19913;-76
2022/01/08 06:03:48;;;;;;;;;;;;;;;;;;5037340;28;19970;-76
2022/01/08 06:06:16;;;;;;;;;;;;;;;;;;5037502;28;19940;-76
2022/01/08 06:08:41;;;;;;;;;;;;;;;;;;5037568;28;19917;-76
2022/01/08 06:11:06;;;;;;;;;;;;;;;;;;5037228;28;19963;-76
2022/01/08 06:13:34;;;;;;;;;;;;;;;;;;5037131;28;19921;-76
2022/01/08 06:15:59;;;;;;;;;;;;;;;;;;5037307;28;19988;-76
2022/01/08 06:18:27;;;;;;;;;;;;;;;;;;5037324;28;19917;-76
2022/01/08 06:20:52;;;;;;;;;;;;;;;;;;5035868;28;19928;-76
2022/01/08 06:23:17;;;;;;;;;;;;;;;;;;5037061;28;20286;-76
2022/01/08 06:25:43;;;;;;;;;;;;;;;;;;5036973;28;19917;-76
2022/01/08 06:28:13;;;;;;;;;;;;;;;;;;5037110;28;19971;-74
2022/01/08 06:30:39;;;;;;;;;;;;;;;;;;5036467;28;19925;-77
2022/01/08 06:33:04;;;;;;;;;;;;;;;;;;5036251;28;20435;-77
2022/01/08 06:35:29;;;;;;;;;;;;;;;;;;5036981;28;19974;-77
2022/01/08 06:37:54;;;;;;;;;;;;;;;;;;5037067;28;19990;-77
2022/01/08 06:40:22;;;;;;;;;;;;;;;;;;5035648;28;20023;-77
2022/01/08 06:42:47;;;;;;;;;;;;;;;;;;5035987;28;19913;-78
2022/01/08 06:45:15;;;;;;;;;;;;;;;;;;5036575;28;20327;-78
2022/01/08 06:47:42;;;;;;;;;;;;;;;;;;5036609;28;20327;-76
2022/01/08 06:50:07;;;;;;;;;;;;;;;;;;5036615;28;20018;-77
2022/01/08 06:52:35;;;;;;;;;;;;;;;;;;5035624;28;19979;-76
2022/01/08 06:55:02;;;;;;;;;;;;;;;;;;5036357;28;19939;-76
2022/01/08 06:57:27;;;;;;;;;;;;;;;;;;5036105;28;19939;-76
2022/01/08 06:59:53;;;;;;;;;;;;;;;;;;5035837;28;20538;-77
2022/01/08 07:02:20;;;;;;;;;;;;;;;;;;5036215;28;20508;-77
2022/01/08 07:04:48;;;;;;;;;;;;;;;;;;5035254;28;19913;-76
2022/01/08 07:07:13;;;;;;;;;;;;;;;;;;5020386;28;19930;-76
2022/01/08 07:09:38;;;;;;;;;;;;;;;;;;5036152;28;20308;-76
2022/01/08 07:12:04;;;;;;;;;;;;;;;;;;5036036;28;20358;-77
2022/01/08 07:14:29;;;;;;;;;;;;;;;;;;5036121;28;19921;-76
2022/01/08 07:16:57;;;;;;;;;;;;;;;;;;5035975;28;19924;-76
2022/01/08 07:19:23;;;;;;;;;;;;;;;;;;5035570;28;20305;-76
2022/01/08 07:21:50;;;;;;;;;;;;;;;;;;5035702;28;20117;-77
2022/01/08 07:24:15;;;;;;;;;;;;;;;;;;5035930;28;19925;-77
2022/01/08 07:26:41;;;;;;;;;;;;;;;;;;5031302;28;20056;-76
2022/01/08 07:29:06;;;;;;;;;;;;;;;;;;5035780;28;19924;-76
2022/01/08 07:31:31;;;;;;;;;;;;;;;;;;5034860;28;19913;-77
2022/01/08 07:33:56;;;;;;;;;;;;;;;;;;5035624;28;19917;-77
2022/01/08 07:36:22;;;;;;;;;;;;;;;;;;5035572;28;19928;-77
2022/01/08 07:38:47;;;;;;;;;;;;;;;;;;5034748;28;19917;-77
2022/01/08 07:41:15;;;;;;;;;;;;;;;;;;5018333;28;19929;-77
2022/01/08 07:43:42;;;;;;;;;;;;;;;;;;5034434;28;19917;-76
2022/01/08 07:46:08;;;;;;;;;;;;;;;;;;5015137;28;19914;-77
2022/01/08 07:48:33;;;;;;;;;;;;;;;;;;5030924;28;20373;-77
2022/01/08 07:50:59;;;;;;;;;;;;;;;;;;5018225;28;20330;-77
2022/01/08 07:53:25;;;;;;;;;;;;;;;;;;5035495;28;19979;-78
2022/01/08 07:55:50;;;;;;;;;;;;;;;;;;5035646;28;19922;-78
2022/01/08 07:58:20;;;;;;;;;;;;;;;;;;5035309;28;20374;-78
2022/01/08 08:00:46;;;;;;;;;;;;;;;;;;5035482;28;19918;-77
2022/01/08 08:03:11;;;;;;;;;;;;;;;;;;5034123;28;20382;-77
2022/01/08 08:05:41;;;;;;;;;;;;;;;;;;5035329;28;19913;-77
2022/01/08 08:08:06;;;;;;;;;;;;;;;;;;5030414;28;19921;-76
2022/01/08 08:10:32;;;;;;;;;;;;;;;;;;5034283;28;19947;-80
2022/01/08 08:12:57;;;;;;;;;;;;;;;;;;5034906;28;19917;-77
2022/01/08 08:15:22;;;;;;;;;;;;;;;;;;5033271;28;20254;-77
2022/01/08 08:17:47;;;;;;;;;;;;;;;;;;5034695;28;20239;-77
2022/01/08 08:20:13;;;;;;;;;;;;;;;;;;5050791;28;19925;-77
2022/01/08 08:22:38;;;;;;;;;;;;;;;;;;5016626;28;19975;-76
2022/01/08 08:25:04;;;;;;;;;;;;;;;;;;5019066;28;19922;-77
2022/01/08 08:27:29;;;;;;;;;;;;;;;;;;5034322;28;20485;-77
2022/01/08 08:29:55;;;;;;;;;;;;;;;;;;5034314;28;20350;-77
2022/01/08 08:32:20;;;;;;;;;;;;;;;;;;5023917;28;20307;-77
2022/01/08 08:34:45;;;;;;;;;;;;;;;;;;5030062;28;19920;-77
2022/01/08 08:37:11;;;;;;;;;;;;;;;;;;5034224;28;19917;-76
2022/01/08 08:39:38;;;;;;;;;;;;;;;;;;5034650;28;19917;-77
2022/01/08 08:42:03;;;;;;;;;;;;;;;;;;5034213;28;19917;-77
2022/01/08 08:44:28;;;;;;;;;;;;;;;;;;5034669;28;20011;-81
2022/01/08 08:46:54;;;;;;;;;;;;;;;;;;5030735;28;19917;-77
2022/01/08 08:49:19;;;;;;;;;;;;;;;;;;5021051;28;19932;-78
2022/01/08 08:51:45;;;;;;;;;;;;;;;;;;5033854;28;19913;-78
2022/01/08 08:54:10;;;;;;;;;;;;;;;;;;5034235;28;19928;-77
2022/01/08 08:56:35;;;;;;;;;;;;;;;;;;5034420;28;19924;-77
2022/01/08 08:59:00;;;;;;;;;;;;;;;;;;5033614;28;19960;-77
2022/01/08 09:01:27;;;;;;;;;;;;;;;;;;5034358;28;19917;-77
2022/01/08 09:03:54;;;;;;;;;;;;;;;;;;5033928;28;19991;-77
2022/01/08 09:06:19;;;;;;;;;;;;;;;;;;5032972;28;19935;-78
2022/01/08 09:08:47;;;;;;;;;;;;;;;;;;5034318;28;19917;-78
2022/01/08 09:11:14;;;;;;;;;;;;;;;;;;5049852;28;19917;-78
2022/01/08 09:13:40;;;;;;;;;;;;;;;;;;5034801;28;19917;-77
2022/01/08 09:16:05;;;;;;;;;;;;;;;;;;5034052;28;19979;-78
2022/01/08 09:18:33;;;;;;;;;;;;;;;;;;5033429;28;20289;-78
2022/01/08 09:21:00;;;;;;;;;;;;;;;;;;5034219;28;19921;-77
2022/01/08 09:23:28;;;;;;;;;;;;;;;;;;5034309;28;19993;-77
2022/01/08 09:25:53;;;;;;;;;;;;;;;;;;5033997;28;20015;-76
2022/01/08 09:28:19;;;;;;;;;;;;;;;;;;5034254;28;19917;-77
2022/01/08 09:30:46;;;;;;;;;;;;;;;;;;5033185;28;19999;-77
2022/01/08 09:33:12;;;;;;;;;;;;;;;;;;5036457;28;20343;-77
2022/01/08 09:35:37;;;;;;;;;;;;;;;;;;5040243;28;19913;-77
2022/01/08 09:38:02;;;;;;;;;;;;;;;;;;5037937;28;19917;-77
2022/01/08 09:40:28;;;;;;;;;;;;;;;;;;5037654;28;19926;-77
2022/01/08 09:42:54;;;;;;;;;;;;;;;;;;5038062;28;19928;-77
2022/01/08 09:45:21;;;;;;;;;;;;;;;;;;5036373;28;19921;-78
2022/01/08 09:47:47;;;;;;;;;;;;;;;;;;5038408;28;19913;-78
2022/01/08 09:50:12;;;;;;;;;;;;;;;;;;5043409;28;19913;-77
2022/01/08 09:52:37;;;;;;;;;;;;;;;;;;5026874;28;19917;-79
2022/01/08 09:55:03;;;;;;;;;;;;;;;;;;5044719;28;19913;-78
2022/01/08 09:57:31;;;;;;;;;;;;;;;;;;5044067;28;19917;-78
2022/01/08 09:59:56;;;;;;;;;;;;;;;;;;5042843;28;19931;-78
2022/01/08 10:02:22;;;;;;;;;;;;;;;;;;5057164;28;19913;-77
2022/01/08 10:04:47;;;;;;;;;;;;;;;;;;5040578;28;19971;-78
2022/01/08 10:07:19;;;;;;;;;;;;;;;;;;5035221;28;19923;-78
2022/01/08 10:10:03;;;;;;;;;;;;;;;;;;5037291;28;20420;-77
2022/01/08 10:12:37;;;;;;;;;;;;;;;;;;5017591;28;19917;-78
2022/01/08 10:17:46;;;;;;;;;;;;;;;;;;5037418;28;20077;-76
2022/01/08 10:20:12;;;;;;;;;;;;;;;;;;5035757;28;19996;-76
2022/01/08 10:22:37;;;;;;;;;;;;;;;;;;5036247;28;20262;-76
2022/01/08 10:25:11;;;;;;;;;;;;;;;;;;5036125;28;19975;-76
2022/01/08 10:27:38;;;;;;;;;;;;;;;;;;5036932;28;19971;-76
2022/01/08 10:30:04;;;;;;;;;;;;;;;;;;5032140;28;19919;-77
2022/01/08 10:32:29;;;;;;;;;;;;;;;;;;5037512;28;19944;-77
2022/01/08 10:34:54;;;;;;;;;;;;;;;;;;5036322;28;19913;-78
2022/01/08 10:37:20;;;;;;;;;;;;;;;;;;5035994;28;19921;-77
2022/01/08 10:39:52;;;;;;;;;;;;;;;;;;5035301;28;19920;-76
2022/01/08 10:42:18;;;;;;;;;;;;;;;;;;5033348;28;19917;-77
2022/01/08 10:44:47;;;;;;;;;;;;;;;;;;5033731;28;20008;-77
2022/01/08 10:47:17;;;;;;;;;;;;;;;;;;5036210;28;20342;-76
2022/01/08 10:49:42;;;;;;;;;;;;;;;;;;5036436;28;19928;-76
2022/01/08 10:52:09;;;;;;;;;;;;;;;;;;5035529;28;19913;-76
2022/01/08 10:54:53;;;;;;;;;;;;;;;;;;5035615;28;19913;-76
2022/01/08 10:57:18;;;;;;;;;;;;;;;;;;5036558;28;19959;-77
2022/01/08 10:59:44;;;;;;;;;;;;;;;;;;5036415;28;19964;-78
2022/01/08 11:02:12;;;;;;;;;;;;;;;;;;5036103;28;20249;-78
2022/01/08 11:04:40;;;;;;;;;;;;;;;;;;5034854;28;19913;-78
2022/01/08 11:07:16;;;;;;;;;;;;;;;;;;5026079;28;19963;-79
2022/01/08 11:09:43;;;;;;;;;;;;;;;;;;5030607;28;20039;-79
2022/01/08 11:12:11;;;;;;;;;;;;;;;;;;5035771;28;19917;-80
2022/01/08 11:17:25;;;;;;;;;;;;;;;;;;5029212;28;19952;-78
2022/01/08 11:20:13;;;;;;;;;;;;;;;;;;5036623;28;20321;-85
2022/01/08 11:22:43;;;;;;;;;;;;;;;;;;5034627;28;19928;-80
2022/01/08 11:25:15;;;;;;;;;;;;;;;;;;5034527;28;19917;-80
2022/01/08 11:27:41;;;;;;;;;;;;;;;;;;5035538;28;19917;-80
2022/01/08 11:30:06;;;;;;;;;;;;;;;;;;5035904;28;20346;-81
2022/01/08 11:32:33;;;;;;;;;;;;;;;;;;5033450;28;19944;-80
2022/01/08 11:35:05;;;;;;;;;;;;;;;;;;5034343;28;20370;-79
2022/01/08 11:37:32;;;;;;;;;;;;;;;;;;5035223;28;20876;-79
2022/01/08 11:39:59;;;;;;;;;;;;;;;;;;5034398;28;20378;-79
2022/01/08 11:42:27;;;;;;;;;;;;;;;;;;5033621;28;20259;-77
2022/01/08 11:44:52;;;;;;;;;;;;;;;;;;5013749;28;19949;-77
2022/01/08 11:47:18;;;;;;;;;;;;;;;;;;5024703;28;20297;-79
2022/01/08 11:49:44;;;;;;;;;;;;;;;;;;5033745;28;20499;-78
2022/01/08 11:52:21;;;;;;;;;;;;;;;;;;5034743;28;20313;-78
2022/01/08 11:54:47;;;;;;;;;;;;;;;;;;5034132;28;19928;-77
2022/01/08 11:57:22;;;;;;;;;;;;;;;;;;5034055;28;19917;-78
2022/01/08 11:59:47;;;;;;;;;;;;;;;;;;5033978;28;19967;-78
2022/01/08 12:02:13;;;;;;;;;;;;;;;;;;5034425;28;19921;-79
2022/01/08 12:04:40;;;;;;;;;;;;;;;;;;5034000;28;19917;-78
2022/01/08 12:07:25;;;;;;;;;;;;;;;;;;5034245;28;19928;-78
2022/01/08 12:10:02;;;;;;;;;;;;;;;;;;5034835;28;19928;-78
2022/01/08 12:12:46;;;;;;;;;;;;;;;;;;5021895;28;19917;-78
2022/01/08 12:15:12;;;;;;;;;;;;;;;;;;5033966;28;19927;-81
2022/01/08 12:17:52;;;;;;;;;;;;;;;;;;5033754;28;20008;-80
2022/01/08 12:20:41;;;;;;;;;;;;;;;;;;5034040;28;19920;-78
2022/01/08 12:23:24;;;;;;;;;;;;;;;;;;5023278;28;19924;-79
2022/01/08 12:25:50;;;;;;;;;;;;;;;;;;5034359;28;19979;-80
2022/01/08 12:28:36;;;;;;;;;;;;;;;;;;5042175;28;19940;-78
2022/01/08 12:31:22;;;;;;;;;;;;;;;;;;5034150;28;19917;-79
2022/01/08 12:34:08;;;;;;;;;;;;;;;;;;5034497;28;20319;-77
2022/01/08 12:36:34;;;;;;;;;;;;;;;;;;5034407;28;19917;-81
2022/01/08 12:39:25;;;;;;;;;;;;;;;;;;5033830;28;20228;-82
2022/01/08 12:42:11;;;;;;;;;;;;;;;;;;5020939;28;20297;-81
2022/01/08 12:44:36;;;;;;;;;;;;;;;;;;5033815;28;19925;-78
2022/01/08 12:47:01;;;;;;;;;;;;;;;;;;5031562;28;20275;-80
2022/01/08 12:49:29;;;;;;;;;;;;;;;;;;5024645;28;20306;-82
2022/01/08 12:51:55;;;;;;;;;;;;;;;;;;5034284;28;20262;-82
2022/01/08 12:54:20;;;;;;;;;;;;;;;;;;5033798;28;19928;-91
2022/01/08 12:56:50;;;;;;;;;;;;;;;;;;5034371;28;19936;-88
2022/01/08 12:59:15;;;;;;;;;;;;;;;;;;5034372;28;20063;-88
2022/01/08 13:01:41;;;;;;;;;;;;;;;;;;5033963;28;20011;-88
2022/01/08 13:04:15;;;;;;;;;;;;;;;;;;5033435;28;19917;-90
2022/01/08 13:06:42;;;;;;;;;;;;;;;;;;5023550;28;19928;-81
2022/01/08 13:09:08;;;;;;;;;;;;;;;;;;5036271;28;19952;-78
2022/01/08 13:11:33;;;;;;;;;;;;;;;;;;5037743;28;19953;-84
2022/01/08 13:14:00;;;;;;;;;;;;;;;;;;5038762;28;20297;-80
2022/01/08 13:16:25;;;;;;;;;;;;;;;;;;5037846;28;19921;-85
2022/01/08 13:18:51;;;;;;;;;;;;;;;;;;5038703;28;19971;-83
2022/01/08 13:21:16;;;;;;;;;;;;;;;;;;5053288;28;19983;-83
2022/01/08 13:23:42;;;;;;;;;;;;;;;;;;5041126;28;19924;-82
2022/01/08 13:26:07;;;;;;;;;;;;;;;;;;5051129;28;20012;-82
2022/01/08 13:28:33;;;;;;;;;;;;;;;;;;5018475;28;19971;-82
2022/01/08 13:30:58;;;;;;;;;;;;;;;;;;5018534;28;20240;-83
2022/01/08 13:33:24;;;;;;;;;;;;;;;;;;5030819;28;19994;-83
2022/01/08 13:36:07;;;;;;;;;;;;;;;;;;5050575;28;19933;-81
2022/01/08 13:38:36;;;;;;;;;;;;;;;;;;5025726;28;20401;-82
2022/01/08 13:41:17;;;;;;;;;;;;;;;;;;5037947;28;20012;-83
2022/01/08 13:44:21;;;;;;;;;;;;;;;;;;5040528;28;19971;-79
2022/01/08 13:46:46;;;;;;;;;;;;;;;;;;5030915;28;19951;-79
2022/01/08 13:49:13;;;;;;;;;;;;;;;;;;5035702;28;19917;-79
2022/01/08 13:51:42;;;;;;;;;;;;;;;;;;5027453;28;19987;-82
2022/01/08 13:54:13;;;;;;;;;;;;;;;;;;5037028;28;19923;-80
2022/01/08 13:56:38;;;;;;;;;;;;;;;;;;5033097;28;20012;-82
2022/01/08 13:59:07;;;;;;;;;;;;;;;;;;5033494;28;19968;-81
2022/01/08 14:01:43;;;;;;;;;;;;;;;;;;5035833;28;19971;-83
2022/01/08 14:04:11;;;;;;;;;;;;;;;;;;5035806;28;19917;-83
2022/01/08 14:07:00;;;;;;;;;;;;;;;;;;5018427;28;19999;-82
2022/01/08 14:09:25;;;;;;;;;;;;;;;;;;5026153;28;19971;-83
2022/01/08 14:12:07;;;;;;;;;;;;;;;;;;5037186;28;19921;-83
2022/01/08 14:15:03;;;;;;;;;;;;;;;;;;5018892;28;20303;-82
2022/01/08 14:17:32;;;;;;;;;;;;;;;;;;5040220;28;19925;-82
2022/01/08 14:20:07;;;;;;;;;;;;;;;;;;5041993;28;19939;-81
2022/01/08 14:22:41;;;;;;;;;;;;;;;;;;5036321;28;20401;-82
2022/01/08 14:25:27;;;;;;;;;;;;;;;;;;5032759;28;19936;-81
2022/01/08 14:27:54;;;;;;;;;;;;;;;;;;5034113;28;20341;-81
2022/01/08 14:30:20;;;;;;;;;;;;;;;;;;5030056;28;19940;-80
2022/01/08 14:33:08;;;;;;;;;;;;;;;;;;5032817;28;19928;-86
2022/01/08 14:35:33;;;;;;;;;;;;;;;;;;5044770;28;19956;-88
2022/01/08 14:38:01;;;;;;;;;;;;;;;;;;5040088;28;19916;-87
2022/01/08 14:40:33;;;;;;;;;;;;;;;;;;5033341;28;20019;-87
2022/01/08 14:43:14;;;;;;;;;;;;;;;;;;5034241;28;19929;-85
2022/01/08 14:45:50;;;;;;;;;;;;;;;;;;5034506;28;19978;-83
2022/01/08 14:48:29;;;;;;;;;;;;;;;;;;5032271;28;19936;-86
2022/01/08 14:51:08;;;;;;;;;;;;;;;;;;5034258;28;20024;-89
2022/01/08 14:53:35;;;;;;;;;;;;;;;;;;5030822;28;20332;-83
2022/01/08 14:56:02;;;;;;;;;;;;;;;;;;5034532;28;19944;-90
2022/01/08 14:58:30;;;;;;;;;;;;;;;;;;5032267;28;19925;-86
2022/01/08 15:00:57;;;;;;;;;;;;;;;;;;5033659;28;19922;-88
2022/01/08 15:03:26;;;;;;;;;;;;;;;;;;5033707;28;20218;-87
2022/01/08 15:05:54;;;;;;;;;;;;;;;;;;5016054;28;20380;-88
2022/01/08 15:08:19;;;;;;;;;;;;;;;;;;5034341;28;19957;-87
2022/01/08 15:10:45;;;;;;;;;;;;;;;;;;5035750;28;20297;-90
2022/01/08 15:13:44;;;;;;;;;;;;;;;;;;5035512;28;20262;-90
2022/01/08 15:16:15;;;;;;;;;;;;;;;;;;5034884;28;19921;-86
2022/01/08 15:18:41;;;;;;;;;;;;;;;;;;5031317;28;20047;-90
2022/01/08 15:21:09;;;;;;;;;;;;;;;;;;5032815;28;19925;-88
2022/01/08 15:23:49;;;;;;;;;;;;;;;;;;5033566;28;19917;-83
2022/01/08 15:26:14;;;;;;;;;;;;;;;;;;5040273;28;19921;-81
2022/01/08 15:28:39;;;;;;;;;;;;;;;;;;5027708;28;19936;-81
2022/01/08 15:31:07;;;;;;;;;;;;;;;;;;5027583;28;19964;-81
2022/01/08 15:33:32;;;;;;;;;;;;;;;;;;5028768;28;20416;-79
2022/01/08 15:35:57;;;;;;;;;;;;;;;;;;5031674;28;19917;-81
2022/01/08 15:38:22;;;;;;;;;;;;;;;;;;5031670;28;19925;-81
2022/01/08 15:40:48;;;;;;;;;;;;;;;;;;5021926;28;19921;-82
2022/01/08 15:43:13;;;;;;;;;;;;;;;;;;5016682;28;20004;-81
2022/01/08 15:45:39;;;;;;;;;;;;;;;;;;5034981;28;19956;-81
2022/01/08 15:48:08;;;;;;;;;;;;;;;;;;5036147;28;19924;-86
2022/01/08 15:50:33;;;;;;;;;;;;;;;;;;5031455;28;19917;-82
2022/01/08 15:52:59;;;;;;;;;;;;;;;;;;5034301;28;21256;-77
2022/01/08 15:55:27;;;;;;;;;;;;;;;;;;5034849;28;19917;-82
2022/01/08 15:57:53;;;;;;;;;;;;;;;;;;5048182;28;19920;-82
2022/01/08 16:00:55;;;;;;;;;;;;;;;;;;5034910;28;19921;-82
2022/01/08 16:03:25;;;;;;;;;;;;;;;;;;5035319;28;20005;-82
2022/01/08 16:05:53;;;;;;;;;;;;;;;;;;5027144;28;20102;-82
2022/01/08 16:08:21;;;;;;;;;;;;;;;;;;5025456;28;19927;-80
2022/01/08 16:10:46;;;;;;;;;;;;;;;;;;5044542;28;19929;-79
2022/01/08 16:13:11;;;;;;;;;;;;;;;;;;5032962;28;20011;-84
2022/01/08 16:15:39;;;;;;;;;;;;;;;;;;5034753;28;19921;-85
2022/01/08 16:18:04;;;;;;;;;;;;;;;;;;5047102;28;19973;-82
2022/01/08 16:20:33;;;;;;;;;;;;;;;;;;5036286;28;19965;-81
2022/01/08 16:22:58;;;;;;;;;;;;;;;;;;5033592;28;20402;-78
2022/01/08 16:25:23;;;;;;;;;;;;;;;;;;5025683;28;20042;-81
2022/01/08 16:27:48;;;;;;;;;;;;;;;;;;5050458;28;19971;-86
2022/01/08 16:30:13;;;;;;;;;;;;;;;;;;5033804;28;19917;-79
2022/01/08 16:32:39;;;;;;;;;;;;;;;;;;5030589;28;19917;-81
2022/01/08 16:35:04;;;;;;;;;;;;;;;;;;5029799;28;19916;-79
2022/01/08 16:37:30;;;;;;;;;;;;;;;;;;5027126;28;19925;-80
2022/01/08 16:39:55;;;;;;;;;;;;;;;;;;5019821;28;19929;-81
2022/01/08 16:42:20;;;;;;;;;;;;;;;;;;5027745;28;20338;-79
2022/01/08 16:44:45;;;;;;;;;;;;;;;;;;5025339;28;19917;-81
2022/01/08 16:47:16;;;;;;;;;;;;;;;;;;5025034;28;19921;-82
2022/01/08 16:49:41;;;;;;;;;;;;;;;;;;5026730;28;19917;-81
2022/01/08 16:52:07;;;;;;;;;;;;;;;;;;5028461;28;19921;-79
2022/01/08 16:54:33;;;;;;;;;;;;;;;;;;5027850;28;19932;-79
2022/01/08 16:56:58;;;;;;;;;;;;;;;;;;5025788;28;19916;-79
2022/01/08 16:59:26;;;;;;;;;;;;;;;;;;5023409;28;19921;-79
2022/01/08 17:01:53;;;;;;;;;;;;;;;;;;5029100;28;19917;-78
2022/01/08 17:04:18;;;;;;;;;;;;;;;;;;5024266;28;19929;-80
2022/01/08 17:06:46;;;;;;;;;;;;;;;;;;5029453;28;19992;-81
2022/01/08 17:09:17;;;;;;;;;;;;;;;;;;5023665;28;20379;-83
2022/01/08 17:11:43;;;;;;;;;;;;;;;;;;5033209;28;20354;-81
2022/01/08 17:14:20;;;;;;;;;;;;;;;;;;5033359;28;20079;-80
2022/01/08 17:17:03;;;;;;;;;;;;;;;;;;5022301;28;19921;-80
2022/01/08 17:19:48;;;;;;;;;;;;;;;;;;5032940;28;19917;-81
2022/01/08 17:22:13;;;;;;;;;;;;;;;;;;5032477;28;19925;-82